sensor_id;sensor_type;location;lat;lon;timestamp;P1;durP1;ratioP1;P2;durP2;ratioP2
50104;SDS011;47690;39.202;-77.198;2022-12-18T00:02:30;1.52;;;1.23;;
50104;SDS011;47690;39.202;-77.198;2022-12-18T00:05:01;1.67;;;1.58;;
50104;SDS011;47690;39.202;-77.198;2022-12-18T00:07:32;1.80;;;1.70;;
50104;SDS011;47690;39.202;-77.198;2022-12-18T00:10:04;2.13;;;1.90;;
50104;SDS011;47690;39.202;-77.198;2022-12-18T00:12:36;1.60;;;1.50;;
50104;SDS011;47690;39.202;-77.198;2022-12-18T00:15:05;1.60;;;1.50;;
50104;SDS011;47690;39.202;-77.198;2022-12-18T00:17:38;1.75;;;1.65;;
50104;SDS011;47690;39.202;-77.198;2022-12-18T00:20:09;2.95;;;1.90;;
50104;SDS011;47690;39.202;-77.198;2022-12-18T00:22:41;1.80;;;1.70;;
50104;SDS011;47690;39.202;-77.198;2022-12-18T00:25:13;1.60;;;1.50;;
50104;SDS011;47690;39.202;-77.198;2022-12-18T00:27:47;1.70;;;1.60;;
50104;SDS011;47690;39.202;-77.198;2022-12-18T00:30:29;1.42;;;1.33;;
50104;SDS011;47690;39.202;-77.198;2022-12-18T00:33:01;1.60;;;1.50;;
50104;SDS011;47690;39.202;-77.198;2022-12-18T00:35:35;1.65;;;1.45;;
50104;SDS011;47690;39.202;-77.198;2022-12-18T00:38:05;1.83;;;1.73;;
50104;SDS011;47690;39.202;-77.198;2022-12-18T00:40:37;1.50;;;1.40;;
50104;SDS011;47690;39.202;-77.198;2022-12-18T00:43:11;1.50;;;1.40;;
50104;SDS011;47690;39.202;-77.198;2022-12-18T00:45:43;1.52;;;1.42;;
50104;SDS011;47690;39.202;-77.198;2022-12-18T00:48:13;3.15;;;1.50;;
50104;SDS011;47690;39.202;-77.198;2022-12-18T00:50:50;1.80;;;1.70;;
50104;SDS011;47690;39.202;-77.198;2022-12-18T00:53:24;2.00;;;1.80;;
50104;SDS011;47690;39.202;-77.198;2022-12-18T00:55:59;2.13;;;1.70;;
50104;SDS011;47690;39.202;-77.198;2022-12-18T00:58:29;1.80;;;1.70;;
50104;SDS011;47690;39.202;-77.198;2022-12-18T01:01:04;1.88;;;1.67;;
50104;SDS011;47690;39.202;-77.198;2022-12-18T01:03:35;1.58;;;1.48;;
50104;SDS011;47690;39.202;-77.198;2022-12-18T01:06:06;1.80;;;1.67;;
50104;SDS011;47690;39.202;-77.198;2022-12-18T01:08:40;1.60;;;1.50;;
50104;SDS011;47690;39.202;-77.198;2022-12-18T01:11:18;1.63;;;1.52;;
50104;SDS011;47690;39.202;-77.198;2022-12-18T01:13:49;1.52;;;1.42;;
50104;SDS011;47690;39.202;-77.198;2022-12-18T01:16:25;1.88;;;1.77;;
50104;SDS011;47690;39.202;-77.198;2022-12-18T01:19:00;1.35;;;1.35;;
50104;SDS011;47690;39.202;-77.198;2022-12-18T01:21:35;1.67;;;1.58;;
50104;SDS011;47690;39.202;-77.198;2022-12-18T01:24:11;1.65;;;1.55;;
50104;SDS011;47690;39.202;-77.198;2022-12-18T01:26:44;1.70;;;1.60;;
50104;SDS011;47690;39.202;-77.198;2022-12-18T01:29:16;1.70;;;1.60;;
50104;SDS011;47690;39.202;-77.198;2022-12-18T01:31:48;1.70;;;1.60;;
50104;SDS011;47690;39.202;-77.198;2022-12-18T01:34:19;1.60;;;1.50;;
50104;SDS011;47690;39.202;-77.198;2022-12-18T01:36:51;1.88;;;1.75;;
50104;SDS011;47690;39.202;-77.198;2022-12-18T01:39:23;1.75;;;1.65;;
50104;SDS011;47690;39.202;-77.198;2022-12-18T01:41:55;2.65;;;1.80;;
50104;SDS011;47690;39.202;-77.198;2022-12-18T01:47:38;1.67;;;1.55;;
50104;SDS011;47690;39.202;-77.198;2022-12-18T01:52:53;2.08;;;1.60;;
50104;SDS011;47690;39.202;-77.198;2022-12-18T01:55:37;1.95;;;1.70;;
50104;SDS011;47690;39.202;-77.198;2022-12-18T01:58:14;1.50;;;1.40;;
50104;SDS011;47690;39.202;-77.198;2022-12-18T02:00:45;1.95;;;1.70;;
50104;SDS011;47690;39.202;-77.198;2022-12-18T02:03:15;1.58;;;1.48;;
50104;SDS011;47690;39.202;-77.198;2022-12-18T02:05:51;2.03;;;1.67;;
50104;SDS011;47690;39.202;-77.198;2022-12-18T02:08:56;1.70;;;1.50;;
50104;SDS011;47690;39.202;-77.198;2022-12-18T02:28:01;1.75;;;1.60;;
50104;SDS011;47690;39.202;-77.198;2022-12-18T02:30:37;2.70;;;1.80;;
50104;SDS011;47690;39.202;-77.198;2022-12-18T02:33:09;2.03;;;1.83;;
50104;SDS011;47690;39.202;-77.198;2022-12-18T02:35:43;2.17;;;1.90;;
50104;SDS011;47690;39.202;-77.198;2022-12-18T02:38:16;1.92;;;1.83;;
50104;SDS011;47690;39.202;-77.198;2022-12-18T02:40:52;2.60;;;2.10;;
50104;SDS011;47690;39.202;-77.198;2022-12-18T02:43:30;2.33;;;2.10;;
50104;SDS011;47690;39.202;-77.198;2022-12-18T02:46:20;2.70;;;2.40;;
50104;SDS011;47690;39.202;-77.198;2022-12-18T02:51:55;3.10;;;2.55;;
50104;SDS011;47690;39.202;-77.198;2022-12-18T02:57:28;2.40;;;2.05;;
50104;SDS011;47690;39.202;-77.198;2022-12-18T03:00:12;3.03;;;2.35;;
50104;SDS011;47690;39.202;-77.198;2022-12-18T03:05:55;2.75;;;2.25;;
50104;SDS011;47690;39.202;-77.198;2022-12-18T03:08:49;3.17;;;2.55;;
50104;SDS011;47690;39.202;-77.198;2022-12-18T03:11:32;2.88;;;2.50;;
50104;SDS011;47690;39.202;-77.198;2022-12-18T03:14:29;3.05;;;2.45;;
50104;SDS011;47690;39.202;-77.198;2022-12-18T03:17:05;2.47;;;2.20;;
50104;SDS011;47690;39.202;-77.198;2022-12-18T03:19:41;2.95;;;2.15;;
50104;SDS011;47690;39.202;-77.198;2022-12-18T03:22:16;2.47;;;2.28;;
50104;SDS011;47690;39.202;-77.198;2022-12-18T03:25:00;2.90;;;2.38;;
50104;SDS011;47690;39.202;-77.198;2022-12-18T03:27:42;3.22;;;2.20;;
50104;SDS011;47690;39.202;-77.198;2022-12-18T03:30:26;2.20;;;2.00;;
50104;SDS011;47690;39.202;-77.198;2022-12-18T03:33:07;2.40;;;2.08;;
50104;SDS011;47690;39.202;-77.198;2022-12-18T03:35:45;2.30;;;2.10;;
50104;SDS011;47690;39.202;-77.198;2022-12-18T03:38:17;3.63;;;2.05;;
50104;SDS011;47690;39.202;-77.198;2022-12-18T03:44:20;2.50;;;2.28;;
50104;SDS011;47690;39.202;-77.198;2022-12-18T03:50:10;1.98;;;1.85;;
50104;SDS011;47690;39.202;-77.198;2022-12-18T03:53:03;2.40;;;2.20;;
50104;SDS011;47690;39.202;-77.198;2022-12-18T03:55:48;2.33;;;2.10;;
50104;SDS011;47690;39.202;-77.198;2022-12-18T03:58:25;2.50;;;2.03;;
50104;SDS011;47690;39.202;-77.198;2022-12-18T04:01:17;2.25;;;2.03;;
50104;SDS011;47690;39.202;-77.198;2022-12-18T04:03:51;2.65;;;2.25;;
50104;SDS011;47690;39.202;-77.198;2022-12-18T04:06:26;3.03;;;2.40;;
50104;SDS011;47690;39.202;-77.198;2022-12-18T04:09:00;3.38;;;2.42;;
50104;SDS011;47690;39.202;-77.198;2022-12-18T04:11:37;3.55;;;2.35;;
50104;SDS011;47690;39.202;-77.198;2022-12-18T04:14:08;2.95;;;2.33;;
50104;SDS011;47690;39.202;-77.198;2022-12-18T04:16:51;2.22;;;2.03;;
50104;SDS011;47690;39.202;-77.198;2022-12-18T04:19:28;2.90;;;2.40;;
50104;SDS011;47690;39.202;-77.198;2022-12-18T04:22:04;2.75;;;2.45;;
50104;SDS011;47690;39.202;-77.198;2022-12-18T04:24:41;2.45;;;2.15;;
50104;SDS011;47690;39.202;-77.198;2022-12-18T04:27:28;2.83;;;2.25;;
50104;SDS011;47690;39.202;-77.198;2022-12-18T04:30:05;2.95;;;2.30;;
50104;SDS011;47690;39.202;-77.198;2022-12-18T04:32:39;3.03;;;2.20;;
50104;SDS011;47690;39.202;-77.198;2022-12-18T04:35:20;3.20;;;2.53;;
50104;SDS011;47690;39.202;-77.198;2022-12-18T04:37:50;4.05;;;3.35;;
50104;SDS011;47690;39.202;-77.198;2022-12-18T04:40:20;5.63;;;4.40;;
50104;SDS011;47690;39.202;-77.198;2022-12-18T04:42:50;10.25;;;7.57;;
50104;SDS011;47690;39.202;-77.198;2022-12-18T04:45:23;7.43;;;6.00;;
50104;SDS011;47690;39.202;-77.198;2022-12-18T04:47:56;5.45;;;4.20;;
50104;SDS011;47690;39.202;-77.198;2022-12-18T04:50:29;3.80;;;3.22;;
50104;SDS011;47690;39.202;-77.198;2022-12-18T04:53:01;2.90;;;2.50;;
50104;SDS011;47690;39.202;-77.198;2022-12-18T04:55:31;2.63;;;2.30;;
50104;SDS011;47690;39.202;-77.198;2022-12-18T04:58:05;2.80;;;2.45;;
50104;SDS011;47690;39.202;-77.198;2022-12-18T05:00:36;2.60;;;2.20;;
50104;SDS011;47690;39.202;-77.198;2022-12-18T05:03:08;2.92;;;2.55;;
50104;SDS011;47690;39.202;-77.198;2022-12-18T05:05:39;2.55;;;2.17;;
50104;SDS011;47690;39.202;-77.198;2022-12-18T05:08:09;3.20;;;2.47;;
50104;SDS011;47690;39.202;-77.198;2022-12-18T05:10:40;3.00;;;2.47;;
50104;SDS011;47690;39.202;-77.198;2022-12-18T05:13:09;3.45;;;2.17;;
50104;SDS011;47690;39.202;-77.198;2022-12-18T05:17:28;3.13;;;2.25;;
50104;SDS011;47690;39.202;-77.198;2022-12-18T05:20:00;2.72;;;2.30;;
50104;SDS011;47690;39.202;-77.198;2022-12-18T05:22:31;2.50;;;2.13;;
50104;SDS011;47690;39.202;-77.198;2022-12-18T05:25:01;3.50;;;2.35;;
50104;SDS011;47690;39.202;-77.198;2022-12-18T05:27:33;3.00;;;2.30;;
50104;SDS011;47690;39.202;-77.198;2022-12-18T05:30:03;2.80;;;2.30;;
50104;SDS011;47690;39.202;-77.198;2022-12-18T05:32:33;2.67;;;2.30;;
50104;SDS011;47690;39.202;-77.198;2022-12-18T05:35:08;2.55;;;2.10;;
50104;SDS011;47690;39.202;-77.198;2022-12-18T05:37:41;2.28;;;2.00;;
50104;SDS011;47690;39.202;-77.198;2022-12-18T05:40:14;2.63;;;2.10;;
50104;SDS011;47690;39.202;-77.198;2022-12-18T05:42:49;2.92;;;2.17;;
50104;SDS011;47690;39.202;-77.198;2022-12-18T05:45:21;3.03;;;2.20;;
50104;SDS011;47690;39.202;-77.198;2022-12-18T05:47:51;2.22;;;2.03;;
50104;SDS011;47690;39.202;-77.198;2022-12-18T05:50:23;2.03;;;1.83;;
50104;SDS011;47690;39.202;-77.198;2022-12-18T05:53:01;2.53;;;2.00;;
50104;SDS011;47690;39.202;-77.198;2022-12-18T05:55:33;2.45;;;1.95;;
50104;SDS011;47690;39.202;-77.198;2022-12-18T05:58:06;1.98;;;1.88;;
50104;SDS011;47690;39.202;-77.198;2022-12-18T06:00:37;2.55;;;2.00;;
50104;SDS011;47690;39.202;-77.198;2022-12-18T06:03:09;2.67;;;2.28;;
50104;SDS011;47690;39.202;-77.198;2022-12-18T06:05:42;2.55;;;2.15;;
50104;SDS011;47690;39.202;-77.198;2022-12-18T06:08:15;2.65;;;2.20;;
50104;SDS011;47690;39.202;-77.198;2022-12-18T06:10:49;2.58;;;2.35;;
50104;SDS011;47690;39.202;-77.198;2022-12-18T06:13:21;2.30;;;2.10;;
50104;SDS011;47690;39.202;-77.198;2022-12-18T06:15:55;2.87;;;2.10;;
50104;SDS011;47690;39.202;-77.198;2022-12-18T06:18:29;2.58;;;2.20;;
50104;SDS011;47690;39.202;-77.198;2022-12-18T06:21:01;2.92;;;1.98;;
50104;SDS011;47690;39.202;-77.198;2022-12-18T06:23:32;2.60;;;2.10;;
50104;SDS011;47690;39.202;-77.198;2022-12-18T06:26:06;2.80;;;2.00;;
50104;SDS011;47690;39.202;-77.198;2022-12-18T06:28:41;3.08;;;2.30;;
50104;SDS011;47690;39.202;-77.198;2022-12-18T06:31:11;3.78;;;2.40;;
50104;SDS011;47690;39.202;-77.198;2022-12-18T06:33:42;2.67;;;2.38;;
50104;SDS011;47690;39.202;-77.198;2022-12-18T06:36:16;3.88;;;2.47;;
50104;SDS011;47690;39.202;-77.198;2022-12-18T06:38:47;2.95;;;2.28;;
50104;SDS011;47690;39.202;-77.198;2022-12-18T06:41:18;2.97;;;2.30;;
50104;SDS011;47690;39.202;-77.198;2022-12-18T06:43:50;2.08;;;1.88;;
50104;SDS011;47690;39.202;-77.198;2022-12-18T06:46:29;2.63;;;2.05;;
50104;SDS011;47690;39.202;-77.198;2022-12-18T06:49:01;2.42;;;1.77;;
50104;SDS011;47690;39.202;-77.198;2022-12-18T06:51:31;2.10;;;1.90;;
50104;SDS011;47690;39.202;-77.198;2022-12-18T06:54:01;2.20;;;1.90;;
50104;SDS011;47690;39.202;-77.198;2022-12-18T06:56:32;1.92;;;1.70;;
50104;SDS011;47690;39.202;-77.198;2022-12-18T06:59:03;1.98;;;1.85;;
50104;SDS011;47690;39.202;-77.198;2022-12-18T07:01:33;2.65;;;2.10;;
50104;SDS011;47690;39.202;-77.198;2022-12-18T07:04:05;1.83;;;1.73;;
50104;SDS011;47690;39.202;-77.198;2022-12-18T07:06:36;2.08;;;1.92;;
50104;SDS011;47690;39.202;-77.198;2022-12-18T07:09:06;2.35;;;2.00;;
50104;SDS011;47690;39.202;-77.198;2022-12-18T07:11:36;2.50;;;1.90;;
50104;SDS011;47690;39.202;-77.198;2022-12-18T07:14:08;2.85;;;2.22;;
50104;SDS011;47690;39.202;-77.198;2022-12-18T07:16:37;2.22;;;2.03;;
50104;SDS011;47690;39.202;-77.198;2022-12-18T07:19:10;2.47;;;2.20;;
50104;SDS011;47690;39.202;-77.198;2022-12-18T07:21:40;2.30;;;2.10;;
50104;SDS011;47690;39.202;-77.198;2022-12-18T07:24:11;2.42;;;2.05;;
50104;SDS011;47690;39.202;-77.198;2022-12-18T07:26:41;2.67;;;2.20;;
50104;SDS011;47690;39.202;-77.198;2022-12-18T07:29:11;3.95;;;2.30;;
50104;SDS011;47690;39.202;-77.198;2022-12-18T07:31:41;2.47;;;2.10;;
50104;SDS011;47690;39.202;-77.198;2022-12-18T07:34:13;4.28;;;2.35;;
50104;SDS011;47690;39.202;-77.198;2022-12-18T07:36:44;3.03;;;2.40;;
50104;SDS011;47690;39.202;-77.198;2022-12-18T07:39:14;2.53;;;2.33;;
50104;SDS011;47690;39.202;-77.198;2022-12-18T07:41:45;3.30;;;2.40;;
50104;SDS011;47690;39.202;-77.198;2022-12-18T07:44:33;2.80;;;2.50;;
50104;SDS011;47690;39.202;-77.198;2022-12-18T07:47:05;3.30;;;2.47;;
50104;SDS011;47690;39.202;-77.198;2022-12-18T07:49:39;3.15;;;2.50;;
50104;SDS011;47690;39.202;-77.198;2022-12-18T07:52:09;2.97;;;2.63;;
50104;SDS011;47690;39.202;-77.198;2022-12-18T07:54:41;3.45;;;2.53;;
50104;SDS011;47690;39.202;-77.198;2022-12-18T07:57:13;2.95;;;2.60;;
50104;SDS011;47690;39.202;-77.198;2022-12-18T08:00:04;2.47;;;2.20;;
50104;SDS011;47690;39.202;-77.198;2022-12-18T08:02:38;3.95;;;2.10;;
50104;SDS011;47690;39.202;-77.198;2022-12-18T08:05:11;2.42;;;2.20;;
50104;SDS011;47690;39.202;-77.198;2022-12-18T08:07:41;2.80;;;2.40;;
50104;SDS011;47690;39.202;-77.198;2022-12-18T08:10:12;2.70;;;2.30;;
50104;SDS011;47690;39.202;-77.198;2022-12-18T08:12:41;3.47;;;2.45;;
50104;SDS011;47690;39.202;-77.198;2022-12-18T08:15:13;2.75;;;2.35;;
50104;SDS011;47690;39.202;-77.198;2022-12-18T08:17:44;3.40;;;2.45;;
50104;SDS011;47690;39.202;-77.198;2022-12-18T08:20:19;2.97;;;2.28;;
50104;SDS011;47690;39.202;-77.198;2022-12-18T08:22:49;2.88;;;2.33;;
50104;SDS011;47690;39.202;-77.198;2022-12-18T08:25:20;3.33;;;2.30;;
50104;SDS011;47690;39.202;-77.198;2022-12-18T08:27:52;2.70;;;2.38;;
50104;SDS011;47690;39.202;-77.198;2022-12-18T08:30:25;2.55;;;2.30;;
50104;SDS011;47690;39.202;-77.198;2022-12-18T08:32:59;3.03;;;2.28;;
50104;SDS011;47690;39.202;-77.198;2022-12-18T08:35:36;2.60;;;2.30;;
50104;SDS011;47690;39.202;-77.198;2022-12-18T08:38:12;2.08;;;1.90;;
50104;SDS011;47690;39.202;-77.198;2022-12-18T08:40:43;2.08;;;1.92;;
50104;SDS011;47690;39.202;-77.198;2022-12-18T08:43:12;2.67;;;2.00;;
50104;SDS011;47690;39.202;-77.198;2022-12-18T08:46:01;2.10;;;1.90;;
50104;SDS011;47690;39.202;-77.198;2022-12-18T08:48:32;2.25;;;2.03;;
50104;SDS011;47690;39.202;-77.198;2022-12-18T08:51:03;2.00;;;1.80;;
50104;SDS011;47690;39.202;-77.198;2022-12-18T08:53:36;2.92;;;1.98;;
50104;SDS011;47690;39.202;-77.198;2022-12-18T08:56:07;3.03;;;2.03;;
50104;SDS011;47690;39.202;-77.198;2022-12-18T08:58:37;2.78;;;2.05;;
50104;SDS011;47690;39.202;-77.198;2022-12-18T09:01:09;3.28;;;2.10;;
50104;SDS011;47690;39.202;-77.198;2022-12-18T09:03:42;2.42;;;2.10;;
50104;SDS011;47690;39.202;-77.198;2022-12-18T09:06:16;2.30;;;2.10;;
50104;SDS011;47690;39.202;-77.198;2022-12-18T09:08:56;2.35;;;2.10;;
50104;SDS011;47690;39.202;-77.198;2022-12-18T09:11:29;2.20;;;2.00;;
50104;SDS011;47690;39.202;-77.198;2022-12-18T09:14:00;2.65;;;2.10;;
50104;SDS011;47690;39.202;-77.198;2022-12-18T09:16:31;2.40;;;2.20;;
50104;SDS011;47690;39.202;-77.198;2022-12-18T09:19:05;2.50;;;2.10;;
50104;SDS011;47690;39.202;-77.198;2022-12-18T09:21:37;2.10;;;1.92;;
50104;SDS011;47690;39.202;-77.198;2022-12-18T09:24:15;2.70;;;2.00;;
50104;SDS011;47690;39.202;-77.198;2022-12-18T09:26:44;2.50;;;2.13;;
50104;SDS011;47690;39.202;-77.198;2022-12-18T09:29:16;3.10;;;2.10;;
50104;SDS011;47690;39.202;-77.198;2022-12-18T09:31:46;2.20;;;2.00;;
50104;SDS011;47690;39.202;-77.198;2022-12-18T09:34:17;2.17;;;1.95;;
50104;SDS011;47690;39.202;-77.198;2022-12-18T09:36:53;2.83;;;2.10;;
50104;SDS011;47690;39.202;-77.198;2022-12-18T09:39:28;2.45;;;2.10;;
50104;SDS011;47690;39.202;-77.198;2022-12-18T09:41:59;2.22;;;2.03;;
50104;SDS011;47690;39.202;-77.198;2022-12-18T09:44:34;2.30;;;2.10;;
50104;SDS011;47690;39.202;-77.198;2022-12-18T09:50:01;2.10;;;1.90;;
50104;SDS011;47690;39.202;-77.198;2022-12-18T09:52:45;2.30;;;2.10;;
50104;SDS011;47690;39.202;-77.198;2022-12-18T09:55:31;3.83;;;1.98;;
50104;SDS011;47690;39.202;-77.198;2022-12-18T09:58:18;2.22;;;2.03;;
50104;SDS011;47690;39.202;-77.198;2022-12-18T10:01:01;2.58;;;2.17;;
50104;SDS011;47690;39.202;-77.198;2022-12-18T10:03:32;2.20;;;2.00;;
50104;SDS011;47690;39.202;-77.198;2022-12-18T10:06:11;2.25;;;1.95;;
50104;SDS011;47690;39.202;-77.198;2022-12-18T10:14:44;2.78;;;2.00;;
50104;SDS011;47690;39.202;-77.198;2022-12-18T10:20:20;2.80;;;1.90;;
50104;SDS011;47690;39.202;-77.198;2022-12-18T10:23:14;2.75;;;2.00;;
50104;SDS011;47690;39.202;-77.198;2022-12-18T10:26:05;2.17;;;2.00;;
50104;SDS011;47690;39.202;-77.198;2022-12-18T10:28:40;3.10;;;2.10;;
50104;SDS011;47690;39.202;-77.198;2022-12-18T10:31:14;2.10;;;1.90;;
50104;SDS011;47690;39.202;-77.198;2022-12-18T10:33:46;2.10;;;1.90;;
50104;SDS011;47690;39.202;-77.198;2022-12-18T10:36:17;2.85;;;1.90;;
50104;SDS011;47690;39.202;-77.198;2022-12-18T10:38:47;2.00;;;1.80;;
50104;SDS011;47690;39.202;-77.198;2022-12-18T10:44:15;1.83;;;1.73;;
50104;SDS011;47690;39.202;-77.198;2022-12-18T10:47:11;1.70;;;1.60;;
50104;SDS011;47690;39.202;-77.198;2022-12-18T10:50:00;1.70;;;1.60;;
50104;SDS011;47690;39.202;-77.198;2022-12-18T10:52:32;1.67;;;1.58;;
50104;SDS011;47690;39.202;-77.198;2022-12-18T10:55:13;1.58;;;1.48;;
50104;SDS011;47690;39.202;-77.198;2022-12-18T10:57:49;1.52;;;1.42;;
50104;SDS011;47690;39.202;-77.198;2022-12-18T11:00:25;2.55;;;1.55;;
50104;SDS011;47690;39.202;-77.198;2022-12-18T11:03:01;1.73;;;1.63;;
50104;SDS011;47690;39.202;-77.198;2022-12-18T11:05:33;2.03;;;1.63;;
50104;SDS011;47690;39.202;-77.198;2022-12-18T11:08:07;1.60;;;1.50;;
50104;SDS011;47690;39.202;-77.198;2022-12-18T11:11:02;1.70;;;1.60;;
50104;SDS011;47690;39.202;-77.198;2022-12-18T11:13:38;1.55;;;1.45;;
50104;SDS011;47690;39.202;-77.198;2022-12-18T11:16:17;1.70;;;1.60;;
50104;SDS011;47690;39.202;-77.198;2022-12-18T11:18:49;1.50;;;1.40;;
50104;SDS011;47690;39.202;-77.198;2022-12-18T11:21:24;1.70;;;1.60;;
50104;SDS011;47690;39.202;-77.198;2022-12-18T11:23:58;1.67;;;1.58;;
50104;SDS011;47690;39.202;-77.198;2022-12-18T11:26:37;1.70;;;1.60;;
50104;SDS011;47690;39.202;-77.198;2022-12-18T11:29:10;1.60;;;1.50;;
50104;SDS011;47690;39.202;-77.198;2022-12-18T11:31:57;1.73;;;1.63;;
50104;SDS011;47690;39.202;-77.198;2022-12-18T11:44:01;1.20;;;1.20;;
50104;SDS011;47690;39.202;-77.198;2022-12-18T11:46:56;1.70;;;1.60;;
50104;SDS011;47690;39.202;-77.198;2022-12-18T11:49:48;1.52;;;1.42;;
50104;SDS011;47690;39.202;-77.198;2022-12-18T11:52:41;1.55;;;1.45;;
50104;SDS011;47690;39.202;-77.198;2022-12-18T11:55:39;1.67;;;1.58;;
50104;SDS011;47690;39.202;-77.198;2022-12-18T12:04:57;1.60;;;1.50;;
50104;SDS011;47690;39.202;-77.198;2022-12-18T12:08:24;1.55;;;1.45;;
50104;SDS011;47690;39.202;-77.198;2022-12-18T12:17:13;1.90;;;1.80;;
50104;SDS011;47690;39.202;-77.198;2022-12-18T12:23:47;1.80;;;1.70;;
50104;SDS011;47690;39.202;-77.198;2022-12-18T12:26:38;1.60;;;1.50;;
50104;SDS011;47690;39.202;-77.198;2022-12-18T12:38:51;1.60;;;1.50;;
50104;SDS011;47690;39.202;-77.198;2022-12-18T12:41:33;1.52;;;1.42;;
50104;SDS011;47690;39.202;-77.198;2022-12-18T12:44:53;1.75;;;1.65;;
50104;SDS011;47690;39.202;-77.198;2022-12-18T12:47:34;1.42;;;1.33;;
50104;SDS011;47690;39.202;-77.198;2022-12-18T12:50:17;1.73;;;1.63;;
50104;SDS011;47690;39.202;-77.198;2022-12-18T12:53:01;1.48;;;1.40;;
50104;SDS011;47690;39.202;-77.198;2022-12-18T12:55:39;1.65;;;1.55;;
50104;SDS011;47690;39.202;-77.198;2022-12-18T12:58:29;1.48;;;1.38;;
50104;SDS011;47690;39.202;-77.198;2022-12-18T13:01:14;1.73;;;1.63;;
50104;SDS011;47690;39.202;-77.198;2022-12-18T13:07:00;1.60;;;1.43;;
50104;SDS011;47690;39.202;-77.198;2022-12-18T13:13:02;1.67;;;1.58;;
50104;SDS011;47690;39.202;-77.198;2022-12-18T13:15:45;1.30;;;1.30;;
50104;SDS011;47690;39.202;-77.198;2022-12-18T13:18:19;1.92;;;1.77;;
50104;SDS011;47690;39.202;-77.198;2022-12-18T13:23:34;1.60;;;1.50;;
50104;SDS011;47690;39.202;-77.198;2022-12-18T13:31:09;1.73;;;1.60;;
50104;SDS011;47690;39.202;-77.198;2022-12-18T13:33:45;1.80;;;1.70;;
50104;SDS011;47690;39.202;-77.198;2022-12-18T13:36:37;1.60;;;1.50;;
50104;SDS011;47690;39.202;-77.198;2022-12-18T13:44:38;1.80;;;1.70;;
50104;SDS011;47690;39.202;-77.198;2022-12-18T13:50:20;1.60;;;1.50;;
50104;SDS011;47690;39.202;-77.198;2022-12-18T13:53:03;1.70;;;1.60;;
50104;SDS011;47690;39.202;-77.198;2022-12-18T13:55:35;1.52;;;1.45;;
50104;SDS011;47690;39.202;-77.198;2022-12-18T13:58:05;1.73;;;1.63;;
50104;SDS011;47690;39.202;-77.198;2022-12-18T14:00:36;1.60;;;1.50;;
50104;SDS011;47690;39.202;-77.198;2022-12-18T14:03:21;1.50;;;1.40;;
50104;SDS011;47690;39.202;-77.198;2022-12-18T14:06:07;1.77;;;1.67;;
50104;SDS011;47690;39.202;-77.198;2022-12-18T14:08:45;1.73;;;1.63;;
50104;SDS011;47690;39.202;-77.198;2022-12-18T14:11:21;1.67;;;1.58;;
50104;SDS011;47690;39.202;-77.198;2022-12-18T14:13:57;1.80;;;1.70;;
50104;SDS011;47690;39.202;-77.198;2022-12-18T14:16:29;1.77;;;1.67;;
50104;SDS011;47690;39.202;-77.198;2022-12-18T14:19:04;1.73;;;1.63;;
50104;SDS011;47690;39.202;-77.198;2022-12-18T14:21:49;1.83;;;1.73;;
50104;SDS011;47690;39.202;-77.198;2022-12-18T14:24:29;1.80;;;1.70;;
50104;SDS011;47690;39.202;-77.198;2022-12-18T14:27:11;1.70;;;1.60;;
50104;SDS011;47690;39.202;-77.198;2022-12-18T14:29:57;1.80;;;1.70;;
50104;SDS011;47690;39.202;-77.198;2022-12-18T14:32:28;1.77;;;1.67;;
50104;SDS011;47690;39.202;-77.198;2022-12-18T14:35:12;1.83;;;1.73;;
50104;SDS011;47690;39.202;-77.198;2022-12-18T14:37:42;1.80;;;1.70;;
50104;SDS011;47690;39.202;-77.198;2022-12-18T14:40:12;1.65;;;1.55;;
50104;SDS011;47690;39.202;-77.198;2022-12-18T14:42:46;1.70;;;1.60;;
50104;SDS011;47690;39.202;-77.198;2022-12-18T14:48:21;1.90;;;1.70;;
50104;SDS011;47690;39.202;-77.198;2022-12-18T14:51:02;2.42;;;1.80;;
50104;SDS011;47690;39.202;-77.198;2022-12-18T14:53:44;2.10;;;1.90;;
50104;SDS011;47690;39.202;-77.198;2022-12-18T14:56:34;1.90;;;1.80;;
50104;SDS011;47690;39.202;-77.198;2022-12-18T14:59:17;2.42;;;1.80;;
50104;SDS011;47690;39.202;-77.198;2022-12-18T15:08:01;2.15;;;1.95;;
50104;SDS011;47690;39.202;-77.198;2022-12-18T15:10:45;3.15;;;2.03;;
50104;SDS011;47690;39.202;-77.198;2022-12-18T15:13:20;1.90;;;1.80;;
50104;SDS011;47690;39.202;-77.198;2022-12-18T15:16:37;1.85;;;1.63;;
50104;SDS011;47690;39.202;-77.198;2022-12-18T15:19:23;1.80;;;1.70;;
50104;SDS011;47690;39.202;-77.198;2022-12-18T15:22:21;1.92;;;1.83;;
50104;SDS011;47690;39.202;-77.198;2022-12-18T15:25:21;1.80;;;1.70;;
50104;SDS011;47690;39.202;-77.198;2022-12-18T15:28:16;1.80;;;1.70;;
50104;SDS011;47690;39.202;-77.198;2022-12-18T15:37:04;2.10;;;1.90;;
50104;SDS011;47690;39.202;-77.198;2022-12-18T15:40:14;2.20;;;2.00;;
50104;SDS011;47690;39.202;-77.198;2022-12-18T15:42:58;1.85;;;1.75;;
50104;SDS011;47690;39.202;-77.198;2022-12-18T15:45:53;1.70;;;1.60;;
50104;SDS011;47690;39.202;-77.198;2022-12-18T15:48:48;1.88;;;1.77;;
50104;SDS011;47690;39.202;-77.198;2022-12-18T15:51:44;2.08;;;1.88;;
50104;SDS011;47690;39.202;-77.198;2022-12-18T15:54:41;2.00;;;1.80;;
50104;SDS011;47690;39.202;-77.198;2022-12-18T16:01:03;2.00;;;1.80;;
50104;SDS011;47690;39.202;-77.198;2022-12-18T16:03:58;2.13;;;1.92;;
50104;SDS011;47690;39.202;-77.198;2022-12-18T16:06:42;2.08;;;1.88;;
50104;SDS011;47690;39.202;-77.198;2022-12-18T16:09:57;1.88;;;1.77;;
50104;SDS011;47690;39.202;-77.198;2022-12-18T16:12:41;1.80;;;1.70;;
50104;SDS011;47690;39.202;-77.198;2022-12-18T16:15:45;1.80;;;1.70;;
50104;SDS011;47690;39.202;-77.198;2022-12-18T16:18:23;1.80;;;1.70;;
50104;SDS011;47690;39.202;-77.198;2022-12-18T16:21:22;1.88;;;1.77;;
50104;SDS011;47690;39.202;-77.198;2022-12-18T16:24:16;1.85;;;1.75;;
50104;SDS011;47690;39.202;-77.198;2022-12-18T16:27:01;1.73;;;1.63;;
50104;SDS011;47690;39.202;-77.198;2022-12-18T16:29:39;2.22;;;2.03;;
50104;SDS011;47690;39.202;-77.198;2022-12-18T16:32:17;1.80;;;1.70;;
50104;SDS011;47690;39.202;-77.198;2022-12-18T16:34:50;1.85;;;1.75;;
50104;SDS011;47690;39.202;-77.198;2022-12-18T16:38:20;1.70;;;1.60;;
50104;SDS011;47690;39.202;-77.198;2022-12-18T16:40:51;1.95;;;1.80;;
50104;SDS011;47690;39.202;-77.198;2022-12-18T16:43:40;1.95;;;1.80;;
50104;SDS011;47690;39.202;-77.198;2022-12-18T16:46:13;1.87;;;1.77;;
50104;SDS011;47690;39.202;-77.198;2022-12-18T16:48:44;2.10;;;1.90;;
50104;SDS011;47690;39.202;-77.198;2022-12-18T16:51:13;1.80;;;1.70;;
50104;SDS011;47690;39.202;-77.198;2022-12-18T16:53:43;1.70;;;1.60;;
50104;SDS011;47690;39.202;-77.198;2022-12-18T16:56:13;1.67;;;1.55;;
50104;SDS011;47690;39.202;-77.198;2022-12-18T16:58:43;1.75;;;1.65;;
50104;SDS011;47690;39.202;-77.198;2022-12-18T17:01:18;1.70;;;1.60;;
50104;SDS011;47690;39.202;-77.198;2022-12-18T17:03:53;1.70;;;1.60;;
50104;SDS011;47690;39.202;-77.198;2022-12-18T17:06:29;1.60;;;1.50;;
50104;SDS011;47690;39.202;-77.198;2022-12-18T17:09:02;1.80;;;1.70;;
50104;SDS011;47690;39.202;-77.198;2022-12-18T17:11:35;1.80;;;1.70;;
50104;SDS011;47690;39.202;-77.198;2022-12-18T17:14:09;1.73;;;1.63;;
50104;SDS011;47690;39.202;-77.198;2022-12-18T17:16:42;1.88;;;1.52;;
50104;SDS011;47690;39.202;-77.198;2022-12-18T17:19:18;1.70;;;1.60;;
50104;SDS011;47690;39.202;-77.198;2022-12-18T17:21:50;1.83;;;1.58;;
50104;SDS011;47690;39.202;-77.198;2022-12-18T17:24:25;1.45;;;1.40;;
50104;SDS011;47690;39.202;-77.198;2022-12-18T17:27:05;1.70;;;1.60;;
50104;SDS011;47690;39.202;-77.198;2022-12-18T17:29:35;1.58;;;1.48;;
50104;SDS011;47690;39.202;-77.198;2022-12-18T17:32:11;1.60;;;1.55;;